createdAt,value
2018-09-25T00:01:41.004Z,4.10
2018-09-25T00:05:43.024Z,4.40
2018-09-25T00:09:44.898Z,8.60
2018-09-25T00:13:46.750Z,5.13
2018-09-25T00:17:48.805Z,3.80
2018-09-25T00:21:50.306Z,3.87
2018-09-25T00:25:52.191Z,5.87
2018-09-25T00:29:54.379Z,4.93
2018-09-25T00:33:57.400Z,6.43
2018-09-25T00:37:58.853Z,6.63
2018-09-25T00:42:00.650Z,8.27
2018-09-25T00:46:02.479Z,7.65
2018-09-25T00:50:04.182Z,5.00
2018-09-25T00:54:06.009Z,5.97
2018-09-25T00:58:07.729Z,6.45
2018-09-25T01:02:09.452Z,6.37
2018-09-25T01:06:11.381Z,7.57
2018-09-25T01:10:13.083Z,4.10
2018-09-25T01:14:14.752Z,4.97
2018-09-25T01:18:16.360Z,6.43
2018-09-25T01:22:18.148Z,6.00
2018-09-25T01:26:19.703Z,11.70
2018-09-25T01:30:21.476Z,5.33
2018-09-25T01:34:23.191Z,4.73
2018-09-25T01:38:24.949Z,5.47
2018-09-25T01:42:26.334Z,11.83
2018-09-25T01:46:27.919Z,4.13
2018-09-25T01:50:29.492Z,6.33
2018-09-25T01:54:31.149Z,3.93
2018-09-25T01:58:32.893Z,6.47
2018-09-25T02:02:41.331Z,4.47
2018-09-25T02:06:43.053Z,8.23
2018-09-25T02:10:45.058Z,7.17
2018-09-25T02:14:46.814Z,7.97
2018-09-25T02:18:48.536Z,6.73
2018-09-25T02:22:50.219Z,9.17
2018-09-25T02:26:51.784Z,6.60
2018-09-25T02:30:54.689Z,5.40
2018-09-25T02:34:56.453Z,5.70
2018-09-25T02:38:57.997Z,5.40
2018-09-25T02:42:59.744Z,7.73
2018-09-25T02:47:01.621Z,16.53
2018-09-25T02:51:03.560Z,10.83
2018-09-25T02:55:05.270Z,6.27
2018-09-25T02:59:06.872Z,10.43
2018-09-25T03:03:08.977Z,8.17
2018-09-25T03:07:10.679Z,12.30
2018-09-25T03:11:12.624Z,6.50
2018-09-25T03:15:14.537Z,4.28
2018-09-25T03:19:16.179Z,13.57
2018-09-25T03:23:17.812Z,6.80
2018-09-25T03:27:19.715Z,7.73
2018-09-25T03:31:21.400Z,11.27
2018-09-25T03:35:23.487Z,9.03
2018-09-25T03:39:25.132Z,6.23
2018-09-25T03:43:26.903Z,7.00
2018-09-25T03:47:28.864Z,8.50
2018-09-25T03:51:30.587Z,10.80
2018-09-25T03:55:32.370Z,7.87
2018-09-25T03:59:38.969Z,13.38
2018-09-25T04:03:40.821Z,13.23
2018-09-25T04:07:42.745Z,8.30
2018-09-25T04:11:46.930Z,9.77
2018-09-25T04:15:48.745Z,7.30
2018-09-25T04:19:50.544Z,8.63
2018-09-25T04:23:51.989Z,7.20
2018-09-25T04:27:53.614Z,8.60
2018-09-25T04:31:55.181Z,7.50
2018-09-25T04:35:56.868Z,7.07
2018-09-25T04:39:58.491Z,12.70
2018-09-25T04:44:00.398Z,6.63
2018-09-25T04:48:02.075Z,9.90
2018-09-25T04:52:03.975Z,10.97
2018-09-25T04:56:08.184Z,9.43
2018-09-25T05:00:10.129Z,9.78
2018-09-25T05:04:11.620Z,9.68
2018-09-25T05:08:13.077Z,8.58
2018-09-25T05:12:14.801Z,9.83
2018-09-25T05:16:16.350Z,13.20
2018-09-25T05:20:18.040Z,9.55
2018-09-25T05:24:19.816Z,9.98
2018-09-25T05:28:21.841Z,10.63
2018-09-25T05:32:23.630Z,10.27
2018-09-25T05:36:25.320Z,13.17
2018-09-25T05:40:34.196Z,12.17
2018-09-25T05:44:36.009Z,12.80
2018-09-25T05:52:57.393Z,22.00
2018-09-25T05:56:59.528Z,11.80
2018-09-25T06:01:01.285Z,9.93
2018-09-25T06:05:04.066Z,19.27
2018-09-25T06:09:07.529Z,14.50
2018-09-25T06:13:09.369Z,13.70
2018-09-25T06:17:11.073Z,18.00
2018-09-25T06:21:12.863Z,13.95
2018-09-25T06:25:14.698Z,14.07
2018-09-25T06:29:29.488Z,16.93
2018-09-25T06:33:31.269Z,15.17
2018-09-25T06:37:32.867Z,16.97
2018-09-25T06:41:34.536Z,19.33
2018-09-25T06:45:36.452Z,16.00
2018-09-25T06:49:38.221Z,21.23
2018-09-25T06:53:40.026Z,13.33
2018-09-25T06:57:44.893Z,14.53
2018-09-25T07:01:46.977Z,13.80
2018-09-25T07:05:48.510Z,20.70
2018-09-25T07:09:50.403Z,12.17
2018-09-25T07:13:52.138Z,13.00
2018-09-25T07:17:53.893Z,12.43
2018-09-25T07:21:55.439Z,13.37
2018-09-25T07:25:57.253Z,17.27
2018-09-25T07:29:58.989Z,12.93
2018-09-25T07:34:00.998Z,8.70
2018-09-25T07:38:04.667Z,9.33
2018-09-25T07:42:09.031Z,12.43
2018-09-25T07:46:10.733Z,9.37
2018-09-25T07:50:27.114Z,10.18
2018-09-25T07:54:28.900Z,12.73
2018-09-25T07:58:30.861Z,9.20
2018-09-25T08:02:35.178Z,5.87
2018-09-25T08:06:37.037Z,10.72
2018-09-25T08:10:38.691Z,8.38
2018-09-25T08:14:40.419Z,7.93
2018-09-25T08:18:42.596Z,8.03
2018-09-25T08:22:44.151Z,4.53
2018-09-25T08:26:52.556Z,20.20
2018-09-25T08:30:54.372Z,6.57
2018-09-25T08:34:56.088Z,3.17
2018-09-25T08:38:57.876Z,8.50
2018-09-25T08:42:59.598Z,13.60
2018-09-25T08:47:01.197Z,5.10
2018-09-25T08:51:02.937Z,5.37
2018-09-25T08:55:04.637Z,6.10
2018-09-25T08:59:06.722Z,4.23
2018-09-25T09:03:08.402Z,7.83
2018-09-25T09:07:10.454Z,6.40
2018-09-25T09:11:12.177Z,6.27
2018-09-25T09:15:13.872Z,5.33
2018-09-25T09:19:15.569Z,2.00
2018-09-25T09:23:17.170Z,5.07
2018-09-25T09:27:19.138Z,2.40
2018-09-25T09:31:27.108Z,5.57
2018-09-25T09:35:29.870Z,4.13
2018-09-25T09:39:31.468Z,10.13
2018-09-25T09:43:33.428Z,4.22
2018-09-25T09:47:35.032Z,9.18
2018-09-25T09:51:36.473Z,4.75
2018-09-25T09:55:38.746Z,4.53
2018-09-25T09:59:40.616Z,2.77
2018-09-25T10:03:42.443Z,8.63
2018-09-25T10:07:44.373Z,6.00
2018-09-25T10:11:46.229Z,5.60
2018-09-25T10:15:48.014Z,8.33
2018-09-25T10:19:49.682Z,4.23
2018-09-25T10:23:51.532Z,9.27
2018-09-25T10:27:53.236Z,8.33
2018-09-25T10:31:55.140Z,7.20
2018-09-25T10:35:56.856Z,2.57
2018-09-25T10:39:58.796Z,6.60
2018-09-25T10:44:02.146Z,9.00
2018-09-25T10:48:04.272Z,5.37
2018-09-25T10:52:05.990Z,3.03
2018-09-25T10:56:07.945Z,4.13
2018-09-25T11:00:09.538Z,7.03
2018-09-25T11:04:11.543Z,13.37
2018-09-25T11:08:15.259Z,6.03
2018-09-25T11:12:17.180Z,9.63
2018-09-25T11:16:19.057Z,8.93
2018-09-25T11:20:21.442Z,6.80
2018-09-25T11:24:23.339Z,11.20
2018-09-25T11:28:25.923Z,9.77
2018-09-25T11:32:27.865Z,6.07
2018-09-25T11:36:29.468Z,5.27
2018-09-25T11:47:03.079Z,7.53
2018-09-25T11:51:07.325Z,8.73
2018-09-25T11:55:09.159Z,10.20
2018-09-25T11:59:10.993Z,4.57
2018-09-25T12:03:13.040Z,4.47
2018-09-25T12:07:14.605Z,4.07
2018-09-25T12:11:16.846Z,5.13
2018-09-25T12:15:18.593Z,4.00
2018-09-25T12:19:20.327Z,5.83
2018-09-25T12:23:22.251Z,5.83
2018-09-25T12:27:25.828Z,5.10
2018-09-25T12:31:27.685Z,8.53
2018-09-25T12:35:30.037Z,3.13
2018-09-25T12:39:32.006Z,4.97
2018-09-25T12:43:33.748Z,7.30
2018-09-25T12:47:35.535Z,2.77
2018-09-25T12:51:37.994Z,3.30
2018-09-25T12:55:39.718Z,3.50
2018-09-25T12:59:41.683Z,3.17
2018-09-25T13:03:44.348Z,5.20
2018-09-25T13:07:47.000Z,4.83
2018-09-25T13:11:49.812Z,7.93
2018-09-25T13:15:51.506Z,4.50
2018-09-25T13:19:53.229Z,8.13
2018-09-25T13:23:55.080Z,6.10
2018-09-25T13:27:56.765Z,2.20
2018-09-25T13:31:58.616Z,2.43
2018-09-25T13:36:02.025Z,7.50
2018-09-25T13:40:14.965Z,3.80
2018-09-25T13:44:21.331Z,7.53
2018-09-25T13:48:23.779Z,5.23
2018-09-25T13:52:25.585Z,5.37
2018-09-25T13:56:27.672Z,5.00
2018-09-25T14:00:30.888Z,3.60
2018-09-25T14:04:32.525Z,8.33
2018-09-25T14:08:34.319Z,4.70
2018-09-25T14:12:37.352Z,4.73
2018-09-25T14:16:38.991Z,3.27
2018-09-25T14:20:40.933Z,2.53
2018-09-25T14:24:43.713Z,2.70
2018-09-25T14:28:45.374Z,5.47
2018-09-25T14:32:47.081Z,3.67
2018-09-25T14:36:48.690Z,3.80
2018-09-25T14:40:50.542Z,3.40
2018-09-25T14:44:52.756Z,3.53
2018-09-25T14:48:54.869Z,3.70
2018-09-25T14:52:56.926Z,2.47
2018-09-25T14:56:58.726Z,1.70
2018-09-25T15:01:00.966Z,3.07
2018-09-25T15:05:02.713Z,7.23
2018-09-25T15:09:05.574Z,3.27
2018-09-25T15:13:07.471Z,1.80
2018-09-25T15:17:09.555Z,4.30
2018-09-25T15:21:11.692Z,5.63
2018-09-25T15:25:14.552Z,2.67
2018-09-25T15:29:16.053Z,2.33
2018-09-25T15:33:18.492Z,3.77
2018-09-25T15:37:20.181Z,3.37
2018-09-25T15:41:21.858Z,3.47
2018-09-25T15:45:24.928Z,3.17
2018-09-25T15:49:26.649Z,2.87
2018-09-25T15:53:33.959Z,3.83
2018-09-25T15:57:37.526Z,4.07
2018-09-25T16:01:39.593Z,3.90
2018-09-25T16:05:41.243Z,5.63
2018-09-25T16:09:43.117Z,2.93
2018-09-25T16:13:44.908Z,2.90
2018-09-25T16:17:48.321Z,7.70
2018-09-25T16:21:50.902Z,5.37
2018-09-25T16:25:52.380Z,2.83
2018-09-25T16:29:54.052Z,4.30
2018-09-25T16:33:55.805Z,2.33
2018-09-25T16:37:57.514Z,2.30
2018-09-25T16:41:59.039Z,4.10
2018-09-25T16:46:00.893Z,1.90
2018-09-25T16:50:02.725Z,4.63
2018-09-25T16:54:04.998Z,3.20
2018-09-25T16:58:06.971Z,2.63
2018-09-25T17:02:09.807Z,8.00
2018-09-25T17:06:15.364Z,4.50
2018-09-25T17:10:17.364Z,3.10
2018-09-25T17:14:19.109Z,2.87
2018-09-25T17:18:20.779Z,3.83
2018-09-25T17:22:22.871Z,3.07
2018-09-25T17:26:25.922Z,4.13
2018-09-25T17:30:27.667Z,4.50
2018-09-25T17:34:29.649Z,2.17
2018-09-25T17:38:31.352Z,4.93
2018-09-25T17:42:33.085Z,3.10
2018-09-25T17:46:35.605Z,3.70
2018-09-25T17:50:37.312Z,2.60
2018-09-25T17:54:39.187Z,3.07
2018-09-25T17:58:41.032Z,7.90
2018-09-25T18:02:43.078Z,7.67
2018-09-25T18:06:44.695Z,5.57
2018-09-25T18:10:46.220Z,5.20
2018-09-25T18:14:48.711Z,6.67
2018-09-25T18:18:50.460Z,6.30
2018-09-25T18:22:52.648Z,5.90
2018-09-25T18:26:54.881Z,5.70
2018-09-25T18:30:56.733Z,10.33
2018-09-25T18:34:58.377Z,7.87
2018-09-25T18:39:00.084Z,12.47
2018-09-25T18:43:01.780Z,9.30
2018-09-25T18:47:03.613Z,5.43
2018-09-25T18:51:05.313Z,7.93
2018-09-25T18:55:07.134Z,8.83
2018-09-25T18:59:08.954Z,7.27
2018-09-25T19:03:10.572Z,8.27
2018-09-25T19:07:12.358Z,9.13
2018-09-25T19:11:14.246Z,6.80
2018-09-25T19:15:16.476Z,6.57
2018-09-25T19:19:18.180Z,8.23
2018-09-25T19:23:19.952Z,9.37
2018-09-25T19:27:21.867Z,9.67
2018-09-25T19:31:24.880Z,12.97
2018-09-25T19:35:26.529Z,7.93
2018-09-25T19:39:28.205Z,7.60
2018-09-25T19:43:29.997Z,8.33
2018-09-25T19:47:31.866Z,8.60
2018-09-25T19:51:33.978Z,7.77
2018-09-25T19:55:35.506Z,13.27
2018-09-25T19:59:37.120Z,5.73
2018-09-25T20:03:38.982Z,3.40
2018-09-25T20:07:40.672Z,5.30
2018-09-25T20:11:42.728Z,5.07
2018-09-25T20:15:44.637Z,5.77
2018-09-25T20:19:46.578Z,5.63
2018-09-25T20:23:48.023Z,5.17
2018-09-25T20:27:49.641Z,5.20
2018-09-25T20:31:51.933Z,3.97
2018-09-25T20:35:53.579Z,5.47
2018-09-25T20:39:55.340Z,3.13
2018-09-25T20:43:57.285Z,4.40
2018-09-25T20:47:59.177Z,4.17
2018-09-25T20:52:01.884Z,4.87
2018-09-25T20:56:03.671Z,2.50
2018-09-25T21:00:05.393Z,5.20
2018-09-25T21:04:06.965Z,2.67
2018-09-25T21:08:08.651Z,2.93
2018-09-25T21:12:10.635Z,3.07
2018-09-25T21:16:12.536Z,3.73
2018-09-25T21:20:14.379Z,5.47
2018-09-25T21:24:16.122Z,2.93
2018-09-25T21:28:17.870Z,3.60
2018-09-25T21:32:19.497Z,2.60
2018-09-25T21:36:21.113Z,4.73
2018-09-25T21:40:22.769Z,5.33
2018-09-25T21:44:24.336Z,2.13
2018-09-25T21:48:26.016Z,3.67
2018-09-25T21:52:27.681Z,3.10
2018-09-25T21:56:29.438Z,3.33
2018-09-25T22:00:31.056Z,3.33
2018-09-25T22:04:32.799Z,3.07
2018-09-25T22:08:34.336Z,6.00
2018-09-25T22:12:36.061Z,5.20
2018-09-25T22:16:37.909Z,3.50
2018-09-25T22:20:39.708Z,2.37
2018-09-25T22:24:41.848Z,1.63
2018-09-25T22:28:43.548Z,7.73
2018-09-25T22:32:45.429Z,2.37
2018-09-25T22:36:47.225Z,3.07
2018-09-25T22:40:48.970Z,2.77
2018-09-25T22:44:50.692Z,1.27
2018-09-25T22:48:52.356Z,3.30
2018-09-25T22:52:53.869Z,2.43
2018-09-25T22:56:55.576Z,2.47
2018-09-25T23:00:57.377Z,2.67
2018-09-25T23:04:59.378Z,2.53
2018-09-25T23:09:01.597Z,2.40
2018-09-25T23:13:03.354Z,0.97
2018-09-25T23:17:05.421Z,2.27
2018-09-25T23:21:07.588Z,3.30
2018-09-25T23:25:09.195Z,2.40
2018-09-25T23:29:10.914Z,5.10
2018-09-25T23:33:12.495Z,2.57
2018-09-25T23:37:14.536Z,1.17
2018-09-25T23:41:16.339Z,3.33
2018-09-25T23:45:21.888Z,3.43
2018-09-25T23:49:21.461Z,2.33
2018-09-25T23:54:20.651Z,2.80
2018-09-25T23:58:28.173Z,2.03
